createdAt,value
2019-01-25T00:00:31.004Z,118.20
2019-01-25T00:01:33.278Z,119.70
2019-01-25T00:04:07.035Z,120.70
2019-01-25T00:05:03.359Z,122.10
2019-01-25T00:06:07.042Z,122.90
2019-01-25T00:07:03.743Z,121.10
2019-01-25T00:08:07.545Z,122.50
2019-01-25T00:09:06.051Z,125.00
2019-01-25T00:10:04.256Z,122.50
2019-01-25T00:11:06.054Z,121.50
2019-01-25T00:12:07.507Z,122.70
2019-01-25T00:13:21.526Z,124.90
2019-01-25T00:14:06.542Z,126.00
2019-01-25T00:15:07.044Z,121.70
2019-01-25T00:16:06.512Z,124.80
2019-01-25T00:17:29.014Z,122.50
2019-01-25T00:18:08.533Z,123.20
2019-01-25T00:19:06.776Z,119.30
2019-01-25T00:20:07.519Z,119.60
2019-01-25T00:21:05.993Z,121.80
2019-01-25T00:22:08.058Z,120.60
2019-01-25T00:23:08.239Z,116.80
2019-01-25T00:24:10.044Z,121.50
2019-01-25T00:25:09.599Z,123.10
2019-01-25T00:26:14.998Z,121.20
2019-01-25T00:27:07.983Z,118.00
2019-01-25T00:28:15.045Z,116.50
2019-01-25T00:29:09.063Z,119.80
2019-01-25T00:30:10.047Z,120.40
2019-01-25T00:31:07.635Z,120.30
2019-01-25T00:32:11.537Z,119.50
2019-01-25T00:33:11.590Z,121.00
2019-01-25T00:34:24.059Z,120.10
2019-01-25T00:35:10.045Z,120.80
2019-01-25T00:36:24.083Z,124.90
2019-01-25T00:37:08.603Z,122.40
2019-01-25T00:38:08.807Z,123.30
2019-01-25T00:39:10.521Z,115.60
2019-01-25T00:40:09.108Z,123.00
2019-01-25T00:41:31.091Z,121.70
2019-01-25T00:42:11.042Z,121.80
2019-01-25T00:43:13.583Z,119.90
2019-01-25T00:44:14.543Z,118.50
2019-01-25T00:45:11.662Z,120.80
2019-01-25T00:46:10.645Z,125.80
2019-01-25T00:47:10.333Z,117.60
2019-01-25T00:48:12.400Z,118.90
2019-01-25T00:49:26.543Z,120.60
2019-01-25T00:50:18.543Z,123.60
2019-01-25T00:51:13.239Z,124.90
2019-01-25T00:52:18.054Z,124.00
2019-01-25T00:53:13.047Z,129.60
2019-01-25T00:54:13.776Z,124.20
2019-01-25T00:55:15.555Z,127.20
2019-01-25T00:56:15.545Z,123.10
2019-01-25T00:57:36.540Z,123.60
2019-01-25T00:58:13.540Z,120.10
2019-01-25T00:59:13.911Z,123.70
2019-01-25T01:00:15.145Z,132.00
2019-01-25T01:01:12.466Z,127.30
2019-01-25T01:02:12.578Z,127.80
2019-01-25T01:03:14.567Z,127.30
2019-01-25T01:04:14.546Z,125.90
2019-01-25T01:05:16.014Z,128.00
2019-01-25T01:06:13.232Z,124.90
2019-01-25T01:07:15.062Z,123.70
2019-01-25T01:08:15.561Z,129.60
2019-01-25T01:09:15.551Z,131.20
2019-01-25T01:10:34.957Z,127.70
2019-01-25T01:11:14.161Z,144.70
2019-01-25T01:12:14.512Z,143.90
2019-01-25T01:13:14.633Z,134.30
2019-01-25T01:14:18.539Z,127.90
2019-01-25T01:15:17.594Z,126.30
2019-01-25T01:16:31.062Z,125.90
2019-01-25T01:17:15.388Z,124.80
2019-01-25T01:18:17.544Z,128.30
2019-01-25T01:19:15.749Z,132.00
2019-01-25T01:20:15.942Z,127.80
2019-01-25T01:21:19.036Z,126.70
2019-01-25T01:22:17.258Z,125.70
2019-01-25T01:23:16.449Z,125.10
2019-01-25T01:24:18.592Z,127.00
2019-01-25T01:25:24.550Z,125.90
2019-01-25T01:26:39.542Z,124.40
2019-01-25T01:27:18.151Z,123.50
2019-01-25T01:28:18.566Z,120.00
2019-01-25T01:29:17.906Z,123.30
2019-01-25T01:30:21.580Z,129.20
2019-01-25T01:31:17.664Z,123.00
2019-01-25T01:32:19.668Z,125.70
2019-01-25T01:33:18.078Z,124.70
2019-01-25T01:34:20.043Z,127.00
2019-01-25T01:35:25.051Z,120.20
2019-01-25T01:36:20.001Z,125.60
2019-01-25T01:37:29.703Z,123.80
2019-01-25T01:38:23.292Z,121.80
2019-01-25T01:39:21.049Z,120.60
2019-01-25T01:40:22.113Z,121.90
2019-01-25T01:41:22.499Z,120.60
2019-01-25T01:42:35.537Z,127.60
2019-01-25T01:43:20.893Z,130.10
2019-01-25T01:44:21.571Z,128.80
2019-01-25T01:45:21.192Z,126.30
2019-01-25T01:46:21.197Z,125.10
2019-01-25T01:47:22.126Z,124.70
2019-01-25T01:48:20.617Z,125.20
2019-01-25T01:49:22.598Z,125.30
2019-01-25T01:50:21.005Z,125.70
2019-01-25T01:51:21.072Z,126.20
2019-01-25T01:52:22.275Z,130.40
2019-01-25T01:53:37.998Z,128.50
2019-01-25T01:54:37.544Z,131.70
2019-01-25T01:55:46.538Z,127.60
2019-01-25T01:56:24.504Z,128.40
2019-01-25T01:57:23.493Z,128.60
2019-01-25T01:58:24.043Z,127.60
2019-01-25T01:59:23.328Z,123.70
2019-01-25T02:00:22.554Z,131.30
2019-01-25T02:01:24.539Z,125.70
2019-01-25T02:02:24.538Z,127.60
2019-01-25T02:03:24.986Z,128.60
2019-01-25T02:04:27.039Z,122.80
2019-01-25T02:05:26.997Z,123.10
2019-01-25T02:06:27.581Z,127.70
2019-01-25T02:07:28.012Z,124.50
2019-01-25T02:08:27.541Z,126.50
2019-01-25T02:09:24.110Z,123.20
2019-01-25T02:10:29.636Z,127.50
2019-01-25T02:11:24.457Z,125.70
2019-01-25T02:12:24.666Z,125.50
2019-01-25T02:13:24.882Z,124.70
2019-01-25T02:14:25.512Z,125.70
2019-01-25T02:15:25.138Z,126.30
2019-01-25T02:16:27.052Z,124.80
2019-01-25T02:17:27.044Z,123.00
2019-01-25T02:18:26.504Z,126.80
2019-01-25T02:19:25.712Z,122.60
2019-01-25T02:20:25.914Z,125.20
2019-01-25T02:21:30.042Z,121.90
2019-01-25T02:22:26.233Z,123.90
2019-01-25T02:23:49.816Z,125.40
2019-01-25T02:24:27.567Z,125.20
2019-01-25T02:25:28.565Z,127.80
2019-01-25T02:26:34.538Z,122.40
2019-01-25T02:27:27.013Z,123.60
2019-01-25T02:28:33.023Z,123.50
2019-01-25T02:29:34.293Z,120.80
2019-01-25T02:30:34.087Z,120.30
2019-01-25T02:31:43.041Z,121.50
2019-01-25T02:32:30.481Z,122.60
2019-01-25T02:33:27.830Z,117.70
2019-01-25T02:34:28.041Z,121.70
2019-01-25T02:35:28.228Z,123.30
2019-01-25T02:36:30.043Z,123.70
2019-01-25T02:37:30.547Z,118.50
2019-01-25T02:38:29.759Z,122.80
2019-01-25T02:39:32.579Z,119.30
2019-01-25T02:40:38.655Z,118.10
2019-01-25T02:41:31.003Z,115.80
2019-01-25T02:42:37.047Z,109.90
2019-01-25T02:43:31.546Z,108.10
2019-01-25T02:44:31.120Z,110.90
2019-01-25T02:45:33.001Z,114.90
2019-01-25T02:46:32.506Z,111.20
2019-01-25T02:47:32.035Z,106.40
2019-01-25T02:48:30.234Z,112.30
2019-01-25T02:49:33.042Z,113.50
2019-01-25T02:50:31.997Z,114.80
2019-01-25T02:51:32.538Z,116.60
2019-01-25T02:52:34.536Z,116.20
2019-01-25T02:53:38.055Z,114.10
2019-01-25T02:54:31.250Z,105.50
2019-01-25T02:55:39.037Z,100.60
2019-01-25T02:56:39.094Z,98.40
2019-01-25T02:57:31.708Z,94.60
2019-01-25T02:58:32.882Z,95.60
2019-01-25T02:59:31.977Z,95.60
2019-01-25T03:00:32.057Z,97.20
2019-01-25T03:01:35.507Z,93.20
2019-01-25T03:02:32.483Z,88.10
2019-01-25T03:03:32.674Z,89.20
2019-01-25T03:04:34.538Z,85.20
2019-01-25T03:05:34.173Z,79.80
2019-01-25T03:06:35.046Z,72.20
2019-01-25T03:07:41.211Z,79.00
2019-01-25T03:08:37.035Z,99.70
2019-01-25T03:09:34.532Z,100.10
2019-01-25T03:10:37.538Z,105.10
2019-01-25T03:11:49.535Z,101.10
2019-01-25T03:12:37.490Z,102.30
2019-01-25T03:13:34.454Z,101.40
2019-01-25T03:14:36.538Z,104.30
2019-01-25T03:15:36.965Z,107.30
2019-01-25T03:16:36.092Z,112.70
2019-01-25T03:17:37.035Z,110.00
2019-01-25T03:18:35.501Z,112.50
2019-01-25T03:19:42.578Z,109.70
2019-01-25T03:20:39.495Z,111.70
2019-01-25T03:21:36.082Z,111.50
2019-01-25T03:22:38.998Z,107.70
2019-01-25T03:23:44.039Z,113.50
2019-01-25T03:24:36.618Z,109.60
2019-01-25T03:25:52.534Z,111.80
2019-01-25T03:26:37.507Z,111.40
2019-01-25T03:27:41.081Z,111.60
2019-01-25T03:28:37.230Z,104.30
2019-01-25T03:29:41.047Z,89.50
2019-01-25T03:30:59.630Z,99.80
2019-01-25T03:31:41.556Z,101.80
2019-01-25T03:32:44.541Z,104.10
2019-01-25T03:33:38.104Z,102.60
2019-01-25T03:34:46.490Z,86.80
2019-01-25T03:35:38.457Z,86.70
2019-01-25T03:36:38.651Z,87.60
2019-01-25T03:37:43.793Z,90.50
2019-01-25T03:38:42.036Z,87.10
2019-01-25T03:39:55.034Z,82.00
2019-01-25T03:40:39.346Z,65.00
2019-01-25T03:41:39.542Z,57.80
2019-01-25T03:42:40.993Z,54.50
2019-01-25T03:43:43.537Z,53.80
2019-01-25T03:44:44.037Z,53.70
2019-01-25T03:45:43.214Z,48.50
2019-01-25T03:46:48.036Z,48.80
2019-01-25T03:47:41.680Z,47.90
2019-01-25T03:48:56.558Z,44.80
2019-01-25T03:49:44.562Z,47.40
2019-01-25T03:50:43.047Z,47.40
2019-01-25T03:51:44.280Z,47.90
2019-01-25T03:52:43.995Z,46.50
2019-01-25T03:53:41.453Z,47.30
2019-01-25T03:55:02.653Z,47.80
2019-01-25T03:55:43.537Z,44.50
2019-01-25T03:56:47.944Z,46.40
2019-01-25T03:57:42.185Z,45.20
2019-01-25T03:58:58.112Z,47.00
2019-01-25T03:59:42.799Z,47.90
2019-01-25T04:00:51.030Z,48.00
2019-01-25T04:01:42.699Z,46.30
2019-01-25T04:02:47.541Z,47.10
2019-01-25T04:03:44.533Z,45.10
2019-01-25T04:04:45.290Z,46.10
2019-01-25T04:05:45.052Z,46.70
2019-01-25T04:06:45.988Z,46.80
2019-01-25T04:07:47.574Z,48.40
2019-01-25T04:08:59.546Z,46.40
2019-01-25T04:09:44.118Z,45.10
2019-01-25T04:10:46.033Z,44.80
2019-01-25T04:11:47.024Z,45.50
2019-01-25T04:12:48.534Z,45.00
2019-01-25T04:15:19.844Z,45.10
2019-01-25T04:16:16.661Z,45.20
2019-01-25T04:17:16.778Z,44.70
2019-01-25T04:18:20.855Z,44.70
2019-01-25T04:19:17.178Z,44.20
2019-01-25T04:20:17.374Z,43.90
2019-01-25T04:21:17.578Z,43.60
2019-01-25T04:22:19.354Z,42.90
2019-01-25T04:23:17.934Z,41.40
2019-01-25T04:24:25.857Z,42.60
2019-01-25T04:25:25.881Z,42.30
2019-01-25T04:26:19.852Z,44.20
2019-01-25T04:27:23.809Z,43.10
2019-01-25T04:28:20.379Z,42.80
2019-01-25T04:29:21.323Z,42.80
2019-01-25T04:30:20.857Z,40.20
2019-01-25T04:31:19.189Z,42.20
2019-01-25T04:32:21.365Z,45.40
2019-01-25T04:33:19.562Z,43.60
2019-01-25T04:34:23.396Z,43.80
2019-01-25T04:35:28.608Z,43.30
2019-01-25T04:36:21.859Z,43.60
2019-01-25T04:37:21.874Z,44.90
2019-01-25T04:38:20.446Z,45.90
2019-01-25T04:39:22.397Z,42.50
2019-01-25T04:40:20.844Z,41.30
2019-01-25T04:41:43.857Z,42.10
2019-01-25T04:42:24.898Z,41.90
2019-01-25T04:43:28.854Z,43.70
2019-01-25T04:44:23.812Z,42.70
2019-01-25T04:45:21.647Z,43.20
2019-01-25T04:46:21.846Z,44.00
2019-01-25T04:47:23.853Z,45.70
2019-01-25T04:48:29.877Z,46.10
2019-01-25T04:49:22.317Z,47.50
2019-01-25T04:50:27.807Z,46.30
2019-01-25T04:51:33.608Z,44.70
2019-01-25T04:52:26.362Z,44.00
2019-01-25T04:53:25.879Z,43.60
2019-01-25T04:54:24.883Z,43.70
2019-01-25T04:55:23.221Z,44.20
2019-01-25T04:56:23.432Z,45.20
2019-01-25T04:57:25.350Z,47.40
2019-01-25T04:58:31.636Z,47.60
2019-01-25T04:59:27.884Z,47.30
2019-01-25T05:00:25.868Z,46.40
2019-01-25T05:01:25.859Z,46.60
2019-01-25T05:02:26.351Z,45.70
2019-01-25T05:03:27.307Z,46.20
2019-01-25T05:04:28.357Z,44.50
2019-01-25T05:05:28.855Z,45.30
2019-01-25T05:06:27.846Z,43.70
2019-01-25T05:07:28.854Z,44.10
2019-01-25T05:08:25.417Z,45.60
2019-01-25T05:09:28.744Z,44.90
2019-01-25T05:10:28.317Z,46.50
2019-01-25T05:11:27.856Z,44.90
2019-01-25T05:12:29.852Z,44.40
2019-01-25T05:13:27.894Z,45.40
2019-01-25T05:14:28.845Z,46.80
2019-01-25T05:15:26.557Z,46.90
2019-01-25T05:16:26.753Z,46.50
2019-01-25T05:17:27.984Z,47.30
2019-01-25T05:18:28.860Z,49.20
2019-01-25T05:19:28.852Z,46.50
2019-01-25T05:20:27.433Z,46.00
2019-01-25T05:21:27.617Z,47.50
2019-01-25T05:22:28.727Z,46.90
2019-01-25T05:23:30.849Z,45.30
2019-01-25T05:24:28.150Z,45.80
2019-01-25T05:25:29.369Z,47.60
2019-01-25T05:26:30.600Z,46.60
2019-01-25T05:27:36.352Z,46.10
2019-01-25T05:28:30.362Z,46.80
2019-01-25T05:29:30.872Z,46.80
2019-01-25T05:30:30.900Z,47.40
2019-01-25T05:31:30.852Z,46.00
2019-01-25T05:32:31.366Z,47.40
2019-01-25T05:33:31.466Z,47.10
2019-01-25T05:34:30.756Z,50.20
2019-01-25T05:35:29.899Z,47.50
2019-01-25T05:36:30.101Z,48.60
2019-01-25T05:37:30.342Z,47.40
2019-01-25T05:38:33.045Z,47.80
2019-01-25T05:39:38.353Z,46.20
2019-01-25T05:40:32.845Z,47.60
2019-01-25T05:41:33.314Z,46.00
2019-01-25T05:42:53.856Z,49.70
2019-01-25T05:43:32.852Z,46.80
2019-01-25T05:44:31.297Z,44.60
2019-01-25T05:45:35.440Z,48.40
2019-01-25T05:46:33.705Z,45.70
2019-01-25T05:47:38.364Z,46.30
2019-01-25T05:48:55.805Z,47.40
2019-01-25T05:49:35.352Z,47.50
2019-01-25T05:50:33.863Z,47.00
2019-01-25T05:52:01.070Z,47.70
2019-01-25T05:52:34.380Z,46.20
2019-01-25T05:53:33.730Z,46.50
2019-01-25T05:54:34.919Z,46.70
2019-01-25T05:55:33.144Z,47.40
2019-01-25T05:56:33.285Z,46.20
2019-01-25T05:57:50.062Z,45.00
2019-01-25T05:58:34.306Z,48.10
2019-01-25T05:59:36.805Z,49.80
2019-01-25T06:00:40.419Z,46.60
2019-01-25T06:01:33.939Z,46.60
2019-01-25T06:02:36.833Z,49.10
2019-01-25T06:03:36.304Z,48.10
2019-01-25T06:04:36.828Z,48.70
2019-01-25T06:05:37.367Z,48.50
2019-01-25T06:06:34.830Z,48.00
2019-01-25T06:07:36.850Z,48.60
2019-01-25T06:08:43.567Z,48.90
2019-01-25T06:09:36.301Z,47.80
2019-01-25T06:10:37.311Z,48.50
2019-01-25T06:11:35.784Z,49.20
2019-01-25T06:12:51.349Z,46.40
2019-01-25T06:13:36.849Z,48.10
2019-01-25T06:14:51.850Z,50.00
2019-01-25T06:15:38.348Z,46.80
2019-01-25T06:16:36.557Z,45.00
2019-01-25T06:17:36.759Z,48.70
2019-01-25T06:18:52.851Z,48.00
2019-01-25T06:19:38.857Z,48.80
2019-01-25T06:20:37.301Z,46.90
2019-01-25T06:21:48.590Z,48.10
2019-01-25T06:22:45.525Z,46.50
2019-01-25T06:23:58.771Z,43.90
2019-01-25T06:24:41.862Z,45.40
2019-01-25T06:25:40.804Z,44.70
2019-01-25T06:26:55.327Z,45.10
2019-01-25T06:27:39.008Z,44.00
2019-01-25T06:28:43.357Z,46.00
2019-01-25T06:29:45.676Z,47.50
2019-01-25T06:30:40.849Z,45.60
2019-01-25T06:31:54.852Z,45.60
2019-01-25T06:32:43.648Z,46.50
2019-01-25T06:33:39.402Z,46.60
2019-01-25T06:34:41.349Z,48.30
2019-01-25T06:35:40.410Z,48.20
2019-01-25T06:36:41.809Z,47.50
2019-01-25T06:37:55.863Z,47.80
2019-01-25T06:38:43.851Z,48.60
2019-01-25T06:39:43.855Z,48.80
2019-01-25T06:40:43.309Z,55.10
2019-01-25T06:41:44.188Z,56.60
2019-01-25T06:42:44.358Z,54.50
2019-01-25T06:43:41.047Z,51.00
2019-01-25T06:44:41.182Z,46.70
2019-01-25T06:45:41.426Z,45.10
2019-01-25T06:46:44.352Z,45.50
2019-01-25T06:47:42.848Z,46.20
2019-01-25T06:48:45.853Z,47.60
2019-01-25T06:49:48.046Z,46.20
2019-01-25T06:50:42.228Z,46.60
2019-01-25T06:51:42.420Z,47.20
2019-01-25T06:52:44.357Z,47.50
2019-01-25T06:53:42.795Z,49.80
2019-01-25T06:54:46.862Z,48.80
2019-01-25T06:55:44.850Z,48.10
2019-01-25T06:56:43.335Z,49.20
2019-01-25T06:57:45.349Z,52.90
2019-01-25T06:58:46.348Z,50.50
2019-01-25T06:59:45.357Z,52.40
2019-01-25T07:00:43.840Z,53.40
2019-01-25T07:01:43.931Z,54.30
2019-01-25T07:02:47.875Z,52.70
2019-01-25T07:03:47.846Z,53.20
2019-01-25T07:04:46.635Z,52.40
2019-01-25T07:06:09.348Z,53.80
2019-01-25T07:06:47.301Z,53.70
2019-01-25T07:07:46.903Z,51.00
2019-01-25T07:08:45.638Z,47.70
2019-01-25T07:09:46.321Z,49.00
2019-01-25T07:10:46.853Z,52.10
2019-01-25T07:11:51.579Z,51.20
2019-01-25T07:12:49.403Z,49.90
2019-01-25T07:13:47.797Z,51.20
2019-01-25T07:14:48.857Z,47.80
2019-01-25T07:15:49.848Z,46.50
2019-01-25T07:16:49.866Z,48.60
2019-01-25T07:17:47.881Z,46.80
2019-01-25T07:18:47.476Z,45.40
2019-01-25T07:19:49.864Z,45.20
2019-01-25T07:21:12.302Z,45.80
2019-01-25T07:21:47.150Z,44.90
2019-01-25T07:22:48.807Z,45.80
2019-01-25T07:24:13.812Z,46.00
2019-01-25T07:24:47.376Z,43.90
2019-01-25T07:25:48.314Z,45.10
2019-01-25T07:26:49.351Z,44.30
2019-01-25T07:28:04.150Z,45.10
2019-01-25T07:28:49.311Z,46.60
2019-01-25T07:29:54.858Z,44.80
2019-01-25T07:30:52.373Z,44.10
2019-01-25T07:31:52.354Z,43.70
2019-01-25T07:33:17.348Z,42.80
2019-01-25T07:33:50.846Z,42.90
2019-01-25T07:34:53.821Z,43.90
2019-01-25T07:35:49.287Z,43.10
2019-01-25T07:36:52.370Z,42.00
2019-01-25T07:37:53.393Z,42.60
2019-01-25T07:38:51.356Z,42.10
2019-01-25T07:39:54.557Z,40.70
2019-01-25T07:40:50.145Z,41.70
2019-01-25T07:42:07.304Z,40.00
2019-01-25T07:42:54.352Z,41.30
2019-01-25T07:43:53.311Z,43.50
2019-01-25T07:44:54.854Z,41.30
2019-01-25T07:46:07.601Z,39.70
2019-01-25T07:46:52.846Z,41.10
2019-01-25T07:48:04.296Z,40.80
2019-01-25T07:48:53.493Z,42.30
2019-01-25T07:49:51.659Z,40.90
2019-01-25T07:52:25.453Z,41.70
2019-01-25T07:53:52.541Z,38.80
2019-01-25T07:54:27.466Z,43.00
2019-01-25T07:55:28.926Z,41.00
2019-01-25T07:56:24.325Z,39.40
2019-01-25T07:57:24.442Z,38.70
2019-01-25T07:58:26.461Z,40.60
2019-01-25T07:59:40.468Z,40.40
2019-01-25T08:00:26.459Z,39.30
2019-01-25T08:01:46.041Z,41.20
2019-01-25T08:02:26.975Z,41.30
2019-01-25T08:03:29.632Z,38.70
2019-01-25T08:04:26.765Z,40.70
2019-01-25T08:05:25.767Z,41.00
2019-01-25T08:06:28.454Z,41.70
2019-01-25T08:07:27.989Z,41.90
2019-01-25T08:08:28.336Z,42.30
2019-01-25T08:09:27.962Z,39.80
2019-01-25T08:10:28.459Z,41.20
2019-01-25T08:11:26.869Z,40.60
2019-01-25T08:12:43.425Z,40.60
2019-01-25T08:13:30.033Z,39.60
2019-01-25T08:14:28.975Z,40.30
2019-01-25T08:15:36.414Z,42.80
2019-01-25T08:16:29.441Z,41.10
2019-01-25T08:17:28.944Z,41.20
2019-01-25T08:18:56.967Z,43.10
2019-01-25T08:19:32.021Z,44.50
2019-01-25T08:20:30.352Z,44.70
2019-01-25T08:24:50.816Z,44.00
2019-01-25T08:25:41.944Z,42.40
2019-01-25T08:26:35.441Z,43.40
2019-01-25T08:27:36.365Z,43.80
2019-01-25T08:28:36.331Z,45.00
2019-01-25T08:29:35.022Z,48.70
2019-01-25T08:30:36.865Z,46.70
2019-01-25T08:31:37.325Z,50.60
2019-01-25T08:32:39.345Z,46.50
2019-01-25T08:33:37.511Z,46.70
2019-01-25T08:34:37.311Z,45.00
2019-01-25T08:35:37.897Z,44.50
2019-01-25T08:36:39.849Z,43.00
2019-01-25T08:37:36.468Z,43.20
2019-01-25T08:38:38.335Z,45.20
2019-01-25T08:39:36.781Z,45.00
2019-01-25T08:40:37.809Z,45.90
2019-01-25T08:41:37.187Z,44.90
2019-01-25T08:42:38.880Z,45.40
2019-01-25T08:43:39.334Z,47.20
2019-01-25T08:44:38.771Z,44.80
2019-01-25T08:45:41.818Z,44.10
2019-01-25T08:46:39.855Z,46.90
2019-01-25T08:47:38.321Z,44.80
2019-01-25T08:48:40.013Z,44.40
2019-01-25T08:50:01.358Z,45.70
2019-01-25T08:50:42.359Z,45.50
2019-01-25T08:51:41.221Z,46.60
2019-01-25T08:52:42.817Z,45.80
2019-01-25T08:53:41.506Z,46.40
2019-01-25T08:54:39.421Z,47.10
2019-01-25T08:55:43.503Z,45.10
2019-01-25T08:56:41.569Z,47.20
2019-01-25T08:57:40.811Z,48.80
2019-01-25T09:00:11.992Z,44.70
2019-01-25T09:01:14.748Z,48.30
2019-01-25T09:02:12.340Z,47.20
2019-01-25T09:03:16.324Z,45.50
2019-01-25T09:04:12.720Z,46.40
2019-01-25T09:05:12.834Z,46.40
2019-01-25T09:06:17.810Z,46.90
2019-01-25T09:07:13.196Z,47.70
2019-01-25T09:08:13.363Z,48.70
2019-01-25T09:09:13.556Z,46.60
2019-01-25T09:10:13.761Z,46.40
2019-01-25T09:11:14.991Z,46.10
2019-01-25T09:12:23.076Z,46.50
2019-01-25T09:13:15.278Z,46.90
2019-01-25T09:14:15.480Z,44.80
2019-01-25T09:15:19.376Z,44.20
2019-01-25T09:16:17.643Z,47.70
2019-01-25T09:17:21.773Z,46.60
2019-01-25T09:18:30.898Z,46.80
2019-01-25T09:19:18.218Z,48.70
2019-01-25T09:20:17.267Z,45.90
2019-01-25T09:21:16.770Z,47.80
2019-01-25T09:22:17.991Z,44.70
2019-01-25T09:23:17.011Z,45.40
2019-01-25T09:24:17.112Z,48.90
2019-01-25T09:25:18.263Z,46.50
2019-01-25T09:26:18.297Z,46.30
2019-01-25T09:27:17.639Z,45.00
2019-01-25T09:28:19.718Z,45.60
2019-01-25T09:29:18.768Z,45.00
2019-01-25T09:30:18.748Z,47.90
2019-01-25T09:31:22.285Z,46.80
2019-01-25T09:32:33.268Z,43.60
2019-01-25T09:33:19.280Z,42.50
2019-01-25T09:34:34.723Z,45.80
2019-01-25T09:35:19.809Z,43.60
2019-01-25T09:36:19.793Z,43.40
2019-01-25T09:37:20.263Z,41.00
2019-01-25T09:38:20.719Z,44.00
2019-01-25T09:39:18.686Z,43.90
2019-01-25T09:40:27.724Z,43.10
2019-01-25T09:41:19.082Z,42.90
2019-01-25T09:42:20.209Z,43.20
2019-01-25T09:43:20.351Z,42.30
2019-01-25T09:44:28.273Z,41.30
2019-01-25T09:45:21.237Z,42.10
2019-01-25T09:46:23.994Z,44.50
2019-01-25T09:47:23.772Z,45.80
2019-01-25T09:48:21.771Z,43.90
2019-01-25T09:49:23.766Z,42.90
2019-01-25T09:50:22.853Z,40.10
2019-01-25T09:51:21.250Z,40.70
2019-01-25T09:52:25.251Z,43.60
2019-01-25T09:53:20.767Z,42.90
2019-01-25T09:54:22.781Z,41.30
2019-01-25T09:55:24.892Z,44.10
2019-01-25T09:56:22.140Z,42.20
2019-01-25T09:57:24.261Z,41.60
2019-01-25T09:58:23.302Z,41.40
2019-01-25T09:59:21.643Z,42.30
2019-01-25T10:00:23.790Z,41.60
2019-01-25T10:01:22.037Z,40.50
2019-01-25T10:02:24.734Z,39.30
2019-01-25T10:03:23.355Z,42.50
2019-01-25T10:04:45.277Z,43.30
2019-01-25T10:05:24.262Z,43.20
2019-01-25T10:06:22.703Z,44.50
2019-01-25T10:07:24.761Z,45.60
2019-01-25T10:08:24.784Z,44.40
2019-01-25T10:09:25.714Z,43.90
2019-01-25T10:10:25.261Z,42.60
2019-01-25T10:11:23.579Z,42.30
2019-01-25T10:12:25.766Z,43.70
2019-01-25T10:13:39.762Z,42.80
2019-01-25T10:14:24.903Z,45.20
2019-01-25T10:15:28.260Z,44.00
2019-01-25T10:16:31.287Z,42.70
2019-01-25T10:17:26.769Z,43.30
2019-01-25T10:18:32.816Z,44.20
2019-01-25T10:19:28.782Z,42.90
2019-01-25T10:20:40.766Z,43.10
2019-01-25T10:21:25.464Z,42.10
2019-01-25T10:22:25.665Z,43.10
2019-01-25T10:23:25.866Z,40.70
2019-01-25T10:24:40.783Z,42.30
2019-01-25T10:25:26.225Z,40.00
2019-01-25T10:26:30.305Z,39.70
2019-01-25T10:27:28.271Z,42.20
2019-01-25T10:28:27.867Z,39.80
2019-01-25T10:29:27.004Z,40.90
2019-01-25T10:30:42.764Z,41.40
2019-01-25T10:31:28.788Z,40.80
2019-01-25T10:32:29.271Z,42.50
2019-01-25T10:33:28.847Z,40.50
2019-01-25T10:34:29.271Z,42.10
2019-01-25T10:35:31.775Z,41.60
2019-01-25T10:36:33.232Z,41.40
2019-01-25T10:37:29.764Z,41.90
2019-01-25T10:38:28.234Z,40.70
2019-01-25T10:39:28.328Z,41.10
2019-01-25T10:40:28.530Z,42.60
2019-01-25T10:41:28.727Z,43.00
2019-01-25T10:42:30.933Z,40.60
2019-01-25T10:43:30.178Z,42.00
2019-01-25T10:44:30.762Z,42.40
2019-01-25T10:45:31.271Z,44.20
2019-01-25T10:46:29.657Z,41.70
2019-01-25T10:47:32.208Z,42.40
2019-01-25T10:48:32.715Z,42.70
2019-01-25T10:49:30.214Z,40.80
2019-01-25T10:50:30.697Z,40.80
2019-01-25T10:51:30.535Z,40.80
2019-01-25T10:52:32.262Z,37.40
2019-01-25T10:53:37.795Z,38.80
2019-01-25T10:54:30.991Z,37.80
2019-01-25T10:55:33.723Z,37.10
2019-01-25T10:56:34.001Z,39.20
2019-01-25T10:57:33.699Z,37.00
2019-01-25T10:58:33.301Z,37.80
2019-01-25T10:59:35.270Z,38.70
2019-01-25T11:00:33.761Z,36.20
2019-01-25T11:01:31.964Z,38.30
2019-01-25T11:02:33.799Z,36.50
2019-01-25T11:03:36.259Z,35.20
2019-01-25T11:04:32.730Z,36.30
2019-01-25T11:05:37.754Z,36.90
2019-01-25T11:06:32.950Z,35.10
2019-01-25T11:07:34.763Z,36.70
2019-01-25T11:08:37.262Z,38.30
2019-01-25T11:09:38.341Z,36.10
2019-01-25T11:10:33.699Z,35.30
2019-01-25T11:11:33.901Z,35.20
2019-01-25T11:12:34.103Z,35.90
2019-01-25T11:13:35.793Z,35.50
2019-01-25T11:14:36.334Z,36.90
2019-01-25T11:15:37.221Z,31.80
2019-01-25T11:16:59.259Z,33.50
2019-01-25T11:17:36.586Z,31.50
2019-01-25T11:18:38.764Z,32.10
2019-01-25T11:19:38.798Z,32.00
2019-01-25T11:20:37.263Z,32.30
2019-01-25T11:21:39.259Z,31.60
2019-01-25T11:22:35.726Z,31.20
2019-01-25T11:23:39.774Z,30.80
2019-01-25T11:24:39.768Z,30.20
2019-01-25T11:25:40.096Z,30.20
2019-01-25T11:26:36.427Z,27.50
2019-01-25T11:27:37.635Z,25.50
2019-01-25T11:28:40.760Z,25.50
2019-01-25T11:29:38.744Z,24.50
2019-01-25T11:30:37.081Z,23.70
2019-01-25T11:31:40.257Z,24.10
2019-01-25T11:32:41.267Z,24.20
2019-01-25T11:33:37.614Z,24.40
2019-01-25T11:34:44.768Z,22.70
2019-01-25T11:35:38.968Z,22.80
2019-01-25T11:36:59.212Z,21.30
2019-01-25T11:37:39.299Z,22.00
2019-01-25T11:38:40.263Z,25.30
2019-01-25T11:39:40.279Z,23.10
2019-01-25T11:40:39.904Z,23.10
2019-01-25T11:41:42.781Z,24.50
2019-01-25T11:42:39.730Z,24.00
2019-01-25T11:43:42.227Z,24.20
2019-01-25T11:44:41.261Z,25.00
2019-01-25T11:45:39.632Z,24.30
2019-01-25T11:46:40.845Z,24.20
2019-01-25T11:47:40.085Z,21.30
2019-01-25T11:48:48.733Z,21.20
2019-01-25T11:49:40.315Z,21.00
2019-01-25T11:50:42.261Z,20.00
2019-01-25T11:51:40.715Z,21.30
2019-01-25T11:52:44.770Z,22.40
2019-01-25T11:53:41.114Z,20.70
2019-01-25T11:54:45.278Z,21.90
2019-01-25T11:55:43.262Z,20.20
2019-01-25T11:56:41.719Z,19.30
2019-01-25T11:57:43.759Z,21.20
2019-01-25T11:58:43.744Z,21.50
2019-01-25T11:59:53.956Z,21.60
2019-01-25T12:00:42.468Z,19.40
2019-01-25T12:01:42.602Z,19.00
2019-01-25T12:02:44.262Z,23.00
2019-01-25T12:03:54.829Z,21.00
2019-01-25T12:04:58.764Z,20.00
2019-01-25T12:05:47.263Z,19.30
2019-01-25T12:06:44.478Z,20.00
2019-01-25T12:07:46.220Z,20.50
2019-01-25T12:08:45.278Z,19.90
2019-01-25T12:09:45.769Z,19.50
2019-01-25T12:10:43.969Z,19.10
2019-01-25T12:11:44.165Z,20.40
2019-01-25T12:12:48.263Z,19.60
2019-01-25T12:13:46.271Z,20.20
2019-01-25T12:14:45.732Z,20.30
2019-01-25T12:15:44.836Z,19.70
2019-01-25T12:17:00.782Z,18.80
2019-01-25T12:17:46.761Z,19.10
2019-01-25T12:18:47.312Z,20.30
2019-01-25T12:19:45.660Z,20.50
2019-01-25T12:20:45.881Z,18.90
2019-01-25T12:21:47.032Z,19.20
2019-01-25T12:22:47.761Z,19.60
2019-01-25T12:23:46.344Z,18.50
2019-01-25T12:24:54.308Z,19.10
2019-01-25T12:25:48.280Z,20.50
2019-01-25T12:26:46.997Z,20.80
2019-01-25T12:27:48.763Z,21.80
2019-01-25T12:28:49.063Z,21.10
2019-01-25T12:29:50.238Z,21.80
2019-01-25T12:30:49.279Z,19.60
2019-01-25T12:31:47.605Z,18.80
2019-01-25T12:32:55.781Z,17.70
2019-01-25T12:33:49.760Z,18.00
2019-01-25T12:34:48.220Z,17.50
2019-01-25T12:35:50.261Z,17.60
2019-01-25T12:36:53.262Z,18.60
2019-01-25T12:37:48.931Z,18.20
2019-01-25T12:38:52.809Z,18.00
2019-01-25T12:39:56.793Z,19.70
2019-01-25T12:40:52.760Z,18.60
2019-01-25T12:41:51.285Z,19.20
2019-01-25T12:42:49.505Z,19.20
2019-01-25T12:43:49.720Z,20.40
2019-01-25T12:44:50.931Z,18.80
2019-01-25T12:45:56.025Z,17.70
2019-01-25T12:46:51.763Z,18.30
2019-01-25T12:48:15.300Z,17.70
2019-01-25T12:48:51.524Z,18.70
2019-01-25T12:50:06.296Z,19.00
2019-01-25T12:50:52.299Z,16.70
2019-01-25T12:51:50.931Z,18.40
2019-01-25T12:53:13.720Z,18.90
2019-01-25T12:53:51.297Z,18.20
2019-01-25T12:54:53.265Z,19.00
2019-01-25T12:55:51.711Z,17.90
2019-01-25T12:56:51.934Z,19.40
2019-01-25T12:57:53.765Z,19.70